sensor_id;sensor_type;location;lat;lon;timestamp;P1;durP1;ratioP1;P2;durP2;ratioP2
82871;SDS011;72646;43.596;1.428;2023-11-19T00:02:06;20.77;;;11.07;;
82871;SDS011;72646;43.596;1.428;2023-11-19T00:04:33;20.20;;;11.80;;
82871;SDS011;72646;43.596;1.428;2023-11-19T00:07:01;17.00;;;11.45;;
82871;SDS011;72646;43.596;1.428;2023-11-19T00:09:29;21.92;;;11.48;;
82871;SDS011;72646;43.596;1.428;2023-11-19T00:11:55;23.13;;;11.85;;
82871;SDS011;72646;43.596;1.428;2023-11-19T00:14:20;19.13;;;11.05;;
82871;SDS011;72646;43.596;1.428;2023-11-19T00:16:46;19.00;;;11.07;;
82871;SDS011;72646;43.596;1.428;2023-11-19T00:19:11;18.85;;;11.02;;
82871;SDS011;72646;43.596;1.428;2023-11-19T00:21:37;18.17;;;10.70;;
82871;SDS011;72646;43.596;1.428;2023-11-19T00:24:02;19.70;;;11.13;;
82871;SDS011;72646;43.596;1.428;2023-11-19T00:26:29;20.00;;;11.10;;
82871;SDS011;72646;43.596;1.428;2023-11-19T00:28:54;18.65;;;10.98;;
82871;SDS011;72646;43.596;1.428;2023-11-19T00:31:21;20.08;;;11.43;;
82871;SDS011;72646;43.596;1.428;2023-11-19T00:33:46;18.77;;;11.13;;
82871;SDS011;72646;43.596;1.428;2023-11-19T00:36:12;18.23;;;10.88;;
82871;SDS011;72646;43.596;1.428;2023-11-19T00:38:38;18.88;;;11.45;;
82871;SDS011;72646;43.596;1.428;2023-11-19T00:41:03;18.75;;;11.30;;
82871;SDS011;72646;43.596;1.428;2023-11-19T00:43:29;17.23;;;11.20;;
82871;SDS011;72646;43.596;1.428;2023-11-19T00:45:54;17.65;;;10.27;;
82871;SDS011;72646;43.596;1.428;2023-11-19T00:48:20;17.50;;;10.55;;
82871;SDS011;72646;43.596;1.428;2023-11-19T00:50:45;20.02;;;11.18;;
82871;SDS011;72646;43.596;1.428;2023-11-19T00:53:11;19.35;;;11.20;;
82871;SDS011;72646;43.596;1.428;2023-11-19T00:55:36;19.30;;;11.35;;
82871;SDS011;72646;43.596;1.428;2023-11-19T00:58:02;19.65;;;11.25;;
82871;SDS011;72646;43.596;1.428;2023-11-19T01:00:28;17.67;;;9.57;;
82871;SDS011;72646;43.596;1.428;2023-11-19T01:02:53;17.63;;;10.45;;
82871;SDS011;72646;43.596;1.428;2023-11-19T01:05:20;18.17;;;10.73;;
82871;SDS011;72646;43.596;1.428;2023-11-19T01:07:47;17.67;;;9.98;;
82871;SDS011;72646;43.596;1.428;2023-11-19T01:10:13;15.85;;;9.57;;
82871;SDS011;72646;43.596;1.428;2023-11-19T01:12:38;17.92;;;10.48;;
82871;SDS011;72646;43.596;1.428;2023-11-19T01:15:04;19.65;;;10.60;;
82871;SDS011;72646;43.596;1.428;2023-11-19T01:17:30;16.27;;;10.07;;
82871;SDS011;72646;43.596;1.428;2023-11-19T01:19:56;17.92;;;10.20;;
82871;SDS011;72646;43.596;1.428;2023-11-19T01:22:22;17.40;;;9.93;;
82871;SDS011;72646;43.596;1.428;2023-11-19T01:24:48;18.85;;;10.18;;
82871;SDS011;72646;43.596;1.428;2023-11-19T01:27:13;17.13;;;9.68;;
82871;SDS011;72646;43.596;1.428;2023-11-19T01:29:39;17.25;;;9.35;;
82871;SDS011;72646;43.596;1.428;2023-11-19T01:32:04;16.15;;;10.00;;
82871;SDS011;72646;43.596;1.428;2023-11-19T01:34:30;15.23;;;9.50;;
82871;SDS011;72646;43.596;1.428;2023-11-19T01:36:55;17.80;;;9.45;;
82871;SDS011;72646;43.596;1.428;2023-11-19T01:39:21;18.52;;;9.07;;
82871;SDS011;72646;43.596;1.428;2023-11-19T01:41:46;15.77;;;9.05;;
82871;SDS011;72646;43.596;1.428;2023-11-19T01:44:12;14.27;;;8.98;;
82871;SDS011;72646;43.596;1.428;2023-11-19T01:46:37;16.20;;;9.18;;
82871;SDS011;72646;43.596;1.428;2023-11-19T01:49:05;14.00;;;8.48;;
82871;SDS011;72646;43.596;1.428;2023-11-19T01:51:31;15.13;;;8.65;;
82871;SDS011;72646;43.596;1.428;2023-11-19T01:53:56;14.63;;;8.38;;
82871;SDS011;72646;43.596;1.428;2023-11-19T01:56:23;15.57;;;8.70;;
82871;SDS011;72646;43.596;1.428;2023-11-19T01:58:49;15.38;;;8.65;;
82871;SDS011;72646;43.596;1.428;2023-11-19T02:01:15;16.85;;;8.57;;
82871;SDS011;72646;43.596;1.428;2023-11-19T02:03:41;15.95;;;8.38;;
82871;SDS011;72646;43.596;1.428;2023-11-19T02:08:35;14.07;;;8.68;;
82871;SDS011;72646;43.596;1.428;2023-11-19T02:11:00;13.65;;;7.38;;
82871;SDS011;72646;43.596;1.428;2023-11-19T02:13:27;14.38;;;7.90;;
82871;SDS011;72646;43.596;1.428;2023-11-19T02:15:53;14.48;;;7.88;;
82871;SDS011;72646;43.596;1.428;2023-11-19T02:20:47;13.75;;;8.10;;
82871;SDS011;72646;43.596;1.428;2023-11-19T02:23:14;15.20;;;7.82;;
82871;SDS011;72646;43.596;1.428;2023-11-19T02:25:40;15.80;;;7.90;;
82871;SDS011;72646;43.596;1.428;2023-11-19T02:28:06;12.82;;;7.05;;
82871;SDS011;72646;43.596;1.428;2023-11-19T02:30:32;13.65;;;7.70;;
82871;SDS011;72646;43.596;1.428;2023-11-19T02:33:00;13.02;;;7.57;;
82871;SDS011;72646;43.596;1.428;2023-11-19T02:35:30;15.73;;;8.00;;
82871;SDS011;72646;43.596;1.428;2023-11-19T02:37:56;14.30;;;7.72;;
82871;SDS011;72646;43.596;1.428;2023-11-19T02:40:22;12.25;;;7.10;;
82871;SDS011;72646;43.596;1.428;2023-11-19T02:42:49;13.30;;;7.22;;
82871;SDS011;72646;43.596;1.428;2023-11-19T02:45:15;12.23;;;6.95;;
82871;SDS011;72646;43.596;1.428;2023-11-19T02:47:41;13.48;;;7.45;;
82871;SDS011;72646;43.596;1.428;2023-11-19T02:50:12;12.32;;;7.10;;
82871;SDS011;72646;43.596;1.428;2023-11-19T02:52:42;13.90;;;7.57;;
82871;SDS011;72646;43.596;1.428;2023-11-19T02:55:10;12.57;;;7.15;;
82871;SDS011;72646;43.596;1.428;2023-11-19T02:57:37;13.60;;;6.93;;
82871;SDS011;72646;43.596;1.428;2023-11-19T03:00:03;12.88;;;7.05;;
82871;SDS011;72646;43.596;1.428;2023-11-19T03:02:38;12.48;;;6.80;;
82871;SDS011;72646;43.596;1.428;2023-11-19T03:05:09;11.98;;;7.15;;
82871;SDS011;72646;43.596;1.428;2023-11-19T03:07:35;13.00;;;7.10;;
82871;SDS011;72646;43.596;1.428;2023-11-19T03:12:27;12.30;;;6.80;;
82871;SDS011;72646;43.596;1.428;2023-11-19T03:14:52;12.35;;;6.68;;
82871;SDS011;72646;43.596;1.428;2023-11-19T03:17:17;10.70;;;6.00;;
82871;SDS011;72646;43.596;1.428;2023-11-19T03:19:43;13.25;;;6.10;;
82871;SDS011;72646;43.596;1.428;2023-11-19T03:22:09;11.95;;;6.10;;
82871;SDS011;72646;43.596;1.428;2023-11-19T03:24:36;11.85;;;6.22;;
82871;SDS011;72646;43.596;1.428;2023-11-19T03:27:01;11.45;;;6.05;;
82871;SDS011;72646;43.596;1.428;2023-11-19T03:29:29;11.40;;;6.15;;
82871;SDS011;72646;43.596;1.428;2023-11-19T03:31:54;11.57;;;6.00;;
82871;SDS011;72646;43.596;1.428;2023-11-19T03:34:20;12.63;;;6.32;;
82871;SDS011;72646;43.596;1.428;2023-11-19T03:36:45;11.23;;;6.00;;
82871;SDS011;72646;43.596;1.428;2023-11-19T03:39:10;13.15;;;5.93;;
82871;SDS011;72646;43.596;1.428;2023-11-19T03:41:36;12.15;;;6.05;;
82871;SDS011;72646;43.596;1.428;2023-11-19T03:44:01;12.43;;;6.18;;
82871;SDS011;72646;43.596;1.428;2023-11-19T03:46:26;12.35;;;6.32;;
82871;SDS011;72646;43.596;1.428;2023-11-19T03:48:55;10.77;;;5.65;;
82871;SDS011;72646;43.596;1.428;2023-11-19T03:51:20;11.73;;;6.03;;
82871;SDS011;72646;43.596;1.428;2023-11-19T03:53:46;13.73;;;5.30;;
82871;SDS011;72646;43.596;1.428;2023-11-19T03:56:11;12.02;;;5.75;;
82871;SDS011;72646;43.596;1.428;2023-11-19T03:58:37;11.32;;;5.95;;
82871;SDS011;72646;43.596;1.428;2023-11-19T04:01:04;13.60;;;6.03;;
82871;SDS011;72646;43.596;1.428;2023-11-19T04:03:30;9.75;;;5.13;;
82871;SDS011;72646;43.596;1.428;2023-11-19T04:05:55;10.75;;;5.60;;
82871;SDS011;72646;43.596;1.428;2023-11-19T04:08:21;10.70;;;5.35;;
82871;SDS011;72646;43.596;1.428;2023-11-19T04:10:47;11.05;;;5.35;;
82871;SDS011;72646;43.596;1.428;2023-11-19T04:13:13;10.90;;;5.47;;
82871;SDS011;72646;43.596;1.428;2023-11-19T04:15:38;10.77;;;5.35;;
82871;SDS011;72646;43.596;1.428;2023-11-19T04:18:03;9.88;;;5.60;;
82871;SDS011;72646;43.596;1.428;2023-11-19T04:20:29;9.77;;;5.25;;
82871;SDS011;72646;43.596;1.428;2023-11-19T04:22:55;12.27;;;5.47;;
82871;SDS011;72646;43.596;1.428;2023-11-19T04:25:21;11.52;;;5.32;;
82871;SDS011;72646;43.596;1.428;2023-11-19T04:27:46;9.05;;;4.80;;
82871;SDS011;72646;43.596;1.428;2023-11-19T04:30:13;9.57;;;4.90;;
82871;SDS011;72646;43.596;1.428;2023-11-19T04:32:38;10.63;;;4.70;;
82871;SDS011;72646;43.596;1.428;2023-11-19T04:35:04;10.70;;;5.13;;
82871;SDS011;72646;43.596;1.428;2023-11-19T04:37:31;10.55;;;5.15;;
82871;SDS011;72646;43.596;1.428;2023-11-19T04:39:57;10.02;;;4.80;;
82871;SDS011;72646;43.596;1.428;2023-11-19T04:42:22;10.35;;;5.18;;
82871;SDS011;72646;43.596;1.428;2023-11-19T04:44:48;9.68;;;5.22;;
82871;SDS011;72646;43.596;1.428;2023-11-19T04:47:13;9.35;;;5.18;;
82871;SDS011;72646;43.596;1.428;2023-11-19T04:49:42;10.90;;;5.43;;
82871;SDS011;72646;43.596;1.428;2023-11-19T04:52:10;9.45;;;4.65;;
82871;SDS011;72646;43.596;1.428;2023-11-19T04:54:40;9.70;;;5.00;;
82871;SDS011;72646;43.596;1.428;2023-11-19T04:57:07;9.65;;;4.70;;
82871;SDS011;72646;43.596;1.428;2023-11-19T04:59:35;11.20;;;5.22;;
82871;SDS011;72646;43.596;1.428;2023-11-19T05:02:01;12.70;;;5.18;;
82871;SDS011;72646;43.596;1.428;2023-11-19T05:04:26;9.68;;;5.07;;
82871;SDS011;72646;43.596;1.428;2023-11-19T05:06:52;10.10;;;4.80;;
82871;SDS011;72646;43.596;1.428;2023-11-19T05:11:43;9.13;;;4.32;;
82871;SDS011;72646;43.596;1.428;2023-11-19T05:14:09;10.60;;;4.28;;
82871;SDS011;72646;43.596;1.428;2023-11-19T05:16:34;10.68;;;5.30;;
82871;SDS011;72646;43.596;1.428;2023-11-19T05:19:00;9.75;;;4.72;;
82871;SDS011;72646;43.596;1.428;2023-11-19T05:21:25;9.45;;;4.45;;
82871;SDS011;72646;43.596;1.428;2023-11-19T05:23:51;9.60;;;4.70;;
82871;SDS011;72646;43.596;1.428;2023-11-19T05:26:17;8.57;;;4.03;;
82871;SDS011;72646;43.596;1.428;2023-11-19T05:28:43;9.13;;;4.43;;
82871;SDS011;72646;43.596;1.428;2023-11-19T05:31:09;9.05;;;4.18;;
82871;SDS011;72646;43.596;1.428;2023-11-19T05:33:34;8.88;;;4.38;;
82871;SDS011;72646;43.596;1.428;2023-11-19T05:36:00;9.60;;;4.53;;
82871;SDS011;72646;43.596;1.428;2023-11-19T05:38:28;9.02;;;4.38;;
82871;SDS011;72646;43.596;1.428;2023-11-19T05:40:54;9.55;;;4.28;;
82871;SDS011;72646;43.596;1.428;2023-11-19T05:43:19;8.90;;;4.65;;
82871;SDS011;72646;43.596;1.428;2023-11-19T05:45:44;9.30;;;4.30;;
82871;SDS011;72646;43.596;1.428;2023-11-19T05:48:10;9.02;;;4.10;;
82871;SDS011;72646;43.596;1.428;2023-11-19T05:50:35;7.90;;;3.95;;
82871;SDS011;72646;43.596;1.428;2023-11-19T05:53:01;9.68;;;4.10;;
82871;SDS011;72646;43.596;1.428;2023-11-19T05:55:26;10.02;;;4.30;;
82871;SDS011;72646;43.596;1.428;2023-11-19T05:57:53;8.98;;;4.07;;
82871;SDS011;72646;43.596;1.428;2023-11-19T06:00:19;9.38;;;4.20;;
82871;SDS011;72646;43.596;1.428;2023-11-19T06:02:44;7.82;;;3.83;;
82871;SDS011;72646;43.596;1.428;2023-11-19T06:05:10;8.38;;;4.07;;
82871;SDS011;72646;43.596;1.428;2023-11-19T06:07:36;9.25;;;4.03;;
82871;SDS011;72646;43.596;1.428;2023-11-19T06:10:04;8.98;;;4.55;;
82871;SDS011;72646;43.596;1.428;2023-11-19T06:12:32;8.30;;;3.90;;
82871;SDS011;72646;43.596;1.428;2023-11-19T06:15:02;8.57;;;3.97;;
82871;SDS011;72646;43.596;1.428;2023-11-19T06:17:29;8.93;;;4.22;;
82871;SDS011;72646;43.596;1.428;2023-11-19T06:19:54;9.07;;;4.35;;
82871;SDS011;72646;43.596;1.428;2023-11-19T06:22:20;9.75;;;4.32;;
82871;SDS011;72646;43.596;1.428;2023-11-19T06:24:45;8.55;;;3.80;;
82871;SDS011;72646;43.596;1.428;2023-11-19T06:27:10;10.13;;;4.22;;
82871;SDS011;72646;43.596;1.428;2023-11-19T06:29:36;9.15;;;4.03;;
82871;SDS011;72646;43.596;1.428;2023-11-19T06:32:01;9.73;;;4.00;;
82871;SDS011;72646;43.596;1.428;2023-11-19T06:34:27;8.18;;;3.85;;
82871;SDS011;72646;43.596;1.428;2023-11-19T06:36:52;8.27;;;3.83;;
82871;SDS011;72646;43.596;1.428;2023-11-19T06:39:17;8.35;;;3.92;;
82871;SDS011;72646;43.596;1.428;2023-11-19T06:41:46;8.02;;;3.72;;
82871;SDS011;72646;43.596;1.428;2023-11-19T06:44:12;8.55;;;3.97;;
82871;SDS011;72646;43.596;1.428;2023-11-19T06:46:38;8.63;;;4.28;;
82871;SDS011;72646;43.596;1.428;2023-11-19T06:49:04;8.68;;;4.13;;
82871;SDS011;72646;43.596;1.428;2023-11-19T06:51:29;9.43;;;3.85;;
82871;SDS011;72646;43.596;1.428;2023-11-19T06:53:55;9.05;;;3.65;;
82871;SDS011;72646;43.596;1.428;2023-11-19T06:56:20;8.02;;;3.90;;
82871;SDS011;72646;43.596;1.428;2023-11-19T06:58:47;8.85;;;3.97;;
82871;SDS011;72646;43.596;1.428;2023-11-19T07:01:15;8.20;;;4.00;;
82871;SDS011;72646;43.596;1.428;2023-11-19T07:03:41;8.18;;;3.92;;
82871;SDS011;72646;43.596;1.428;2023-11-19T07:06:07;8.18;;;3.50;;
82871;SDS011;72646;43.596;1.428;2023-11-19T07:08:33;9.32;;;3.97;;
82871;SDS011;72646;43.596;1.428;2023-11-19T07:10:59;8.98;;;4.05;;
82871;SDS011;72646;43.596;1.428;2023-11-19T07:13:24;7.95;;;3.75;;
82871;SDS011;72646;43.596;1.428;2023-11-19T07:15:52;8.90;;;3.90;;
82871;SDS011;72646;43.596;1.428;2023-11-19T07:18:18;7.85;;;4.03;;
82871;SDS011;72646;43.596;1.428;2023-11-19T07:20:43;8.13;;;3.60;;
82871;SDS011;72646;43.596;1.428;2023-11-19T07:23:11;8.82;;;4.07;;
82871;SDS011;72646;43.596;1.428;2023-11-19T07:25:37;8.75;;;3.92;;
82871;SDS011;72646;43.596;1.428;2023-11-19T07:28:03;8.45;;;3.95;;
82871;SDS011;72646;43.596;1.428;2023-11-19T07:30:29;7.93;;;3.55;;
82871;SDS011;72646;43.596;1.428;2023-11-19T07:32:55;8.88;;;3.72;;
82871;SDS011;72646;43.596;1.428;2023-11-19T07:35:20;8.18;;;4.05;;
82871;SDS011;72646;43.596;1.428;2023-11-19T07:37:45;8.80;;;3.78;;
82871;SDS011;72646;43.596;1.428;2023-11-19T07:40:12;8.32;;;3.70;;
82871;SDS011;72646;43.596;1.428;2023-11-19T07:42:38;9.30;;;3.95;;
82871;SDS011;72646;43.596;1.428;2023-11-19T07:45:03;8.45;;;3.90;;
82871;SDS011;72646;43.596;1.428;2023-11-19T07:47:30;8.63;;;3.95;;
82871;SDS011;72646;43.596;1.428;2023-11-19T07:49:56;9.48;;;4.15;;
82871;SDS011;72646;43.596;1.428;2023-11-19T07:52:21;8.27;;;3.80;;
82871;SDS011;72646;43.596;1.428;2023-11-19T07:54:47;9.50;;;3.95;;
82871;SDS011;72646;43.596;1.428;2023-11-19T07:57:12;8.50;;;4.38;;
82871;SDS011;72646;43.596;1.428;2023-11-19T07:59:37;7.78;;;3.92;;
82871;SDS011;72646;43.596;1.428;2023-11-19T08:02:04;9.60;;;4.18;;
82871;SDS011;72646;43.596;1.428;2023-11-19T08:04:30;8.32;;;3.70;;
82871;SDS011;72646;43.596;1.428;2023-11-19T08:06:56;8.77;;;4.13;;
82871;SDS011;72646;43.596;1.428;2023-11-19T08:09:21;8.80;;;3.90;;
82871;SDS011;72646;43.596;1.428;2023-11-19T08:11:48;9.80;;;4.32;;
82871;SDS011;72646;43.596;1.428;2023-11-19T08:14:13;7.63;;;3.83;;
82871;SDS011;72646;43.596;1.428;2023-11-19T08:16:39;7.60;;;3.83;;
82871;SDS011;72646;43.596;1.428;2023-11-19T08:19:05;9.75;;;3.92;;
82871;SDS011;72646;43.596;1.428;2023-11-19T08:21:30;8.60;;;3.72;;
82871;SDS011;72646;43.596;1.428;2023-11-19T08:23:56;9.13;;;3.95;;
82871;SDS011;72646;43.596;1.428;2023-11-19T08:26:21;8.18;;;4.30;;
82871;SDS011;72646;43.596;1.428;2023-11-19T08:28:47;8.98;;;3.90;;
82871;SDS011;72646;43.596;1.428;2023-11-19T08:31:12;9.25;;;3.80;;
82871;SDS011;72646;43.596;1.428;2023-11-19T08:33:38;8.88;;;4.25;;
82871;SDS011;72646;43.596;1.428;2023-11-19T08:36:03;9.82;;;3.88;;
82871;SDS011;72646;43.596;1.428;2023-11-19T08:38:29;9.05;;;3.83;;
82871;SDS011;72646;43.596;1.428;2023-11-19T08:40:55;9.40;;;4.32;;
82871;SDS011;72646;43.596;1.428;2023-11-19T08:43:25;8.68;;;3.75;;
82871;SDS011;72646;43.596;1.428;2023-11-19T08:45:51;8.13;;;4.20;;
82871;SDS011;72646;43.596;1.428;2023-11-19T08:48:16;8.38;;;3.80;;
82871;SDS011;72646;43.596;1.428;2023-11-19T08:50:42;8.52;;;4.18;;
82871;SDS011;72646;43.596;1.428;2023-11-19T08:53:07;9.43;;;3.92;;
82871;SDS011;72646;43.596;1.428;2023-11-19T08:55:32;8.00;;;3.88;;
82871;SDS011;72646;43.596;1.428;2023-11-19T08:57:58;9.43;;;4.15;;
82871;SDS011;72646;43.596;1.428;2023-11-19T09:00:23;8.90;;;3.55;;
82871;SDS011;72646;43.596;1.428;2023-11-19T09:02:49;9.25;;;3.70;;
82871;SDS011;72646;43.596;1.428;2023-11-19T09:05:14;9.20;;;3.90;;
82871;SDS011;72646;43.596;1.428;2023-11-19T09:07:39;7.65;;;3.72;;
82871;SDS011;72646;43.596;1.428;2023-11-19T09:10:05;9.30;;;3.85;;
82871;SDS011;72646;43.596;1.428;2023-11-19T09:12:31;8.75;;;3.83;;
82871;SDS011;72646;43.596;1.428;2023-11-19T09:14:56;8.90;;;4.03;;
82871;SDS011;72646;43.596;1.428;2023-11-19T09:17:21;7.70;;;3.50;;
82871;SDS011;72646;43.596;1.428;2023-11-19T09:19:47;8.07;;;3.72;;
82871;SDS011;72646;43.596;1.428;2023-11-19T09:22:12;8.10;;;3.65;;
82871;SDS011;72646;43.596;1.428;2023-11-19T09:24:38;8.95;;;3.85;;
82871;SDS011;72646;43.596;1.428;2023-11-19T09:27:03;7.97;;;3.85;;
82871;SDS011;72646;43.596;1.428;2023-11-19T09:29:31;9.50;;;3.33;;
82871;SDS011;72646;43.596;1.428;2023-11-19T09:31:56;7.97;;;3.92;;
82871;SDS011;72646;43.596;1.428;2023-11-19T09:34:23;13.65;;;4.03;;
82871;SDS011;72646;43.596;1.428;2023-11-19T09:36:49;7.78;;;3.63;;
82871;SDS011;72646;43.596;1.428;2023-11-19T09:39:14;9.48;;;3.60;;
82871;SDS011;72646;43.596;1.428;2023-11-19T09:41:43;7.07;;;3.33;;
82871;SDS011;72646;43.596;1.428;2023-11-19T09:44:10;9.68;;;3.80;;
82871;SDS011;72646;43.596;1.428;2023-11-19T09:46:36;8.48;;;3.33;;
82871;SDS011;72646;43.596;1.428;2023-11-19T09:49:06;7.22;;;3.55;;
82871;SDS011;72646;43.596;1.428;2023-11-19T09:51:34;7.88;;;3.40;;
82871;SDS011;72646;43.596;1.428;2023-11-19T09:54:00;8.77;;;3.50;;
82871;SDS011;72646;43.596;1.428;2023-11-19T09:56:26;9.52;;;3.72;;
82871;SDS011;72646;43.596;1.428;2023-11-19T09:58:54;7.70;;;3.45;;
82871;SDS011;72646;43.596;1.428;2023-11-19T10:01:21;8.70;;;3.70;;
82871;SDS011;72646;43.596;1.428;2023-11-19T10:03:47;8.05;;;3.28;;
82871;SDS011;72646;43.596;1.428;2023-11-19T10:06:14;8.35;;;3.70;;
82871;SDS011;72646;43.596;1.428;2023-11-19T10:08:40;7.63;;;3.50;;
82871;SDS011;72646;43.596;1.428;2023-11-19T10:11:06;8.77;;;3.47;;
82871;SDS011;72646;43.596;1.428;2023-11-19T10:13:35;7.97;;;3.40;;
82871;SDS011;72646;43.596;1.428;2023-11-19T10:16:06;6.88;;;2.90;;
82871;SDS011;72646;43.596;1.428;2023-11-19T10:18:33;9.35;;;3.75;;
82871;SDS011;72646;43.596;1.428;2023-11-19T10:21:03;7.38;;;3.28;;
82871;SDS011;72646;43.596;1.428;2023-11-19T10:23:47;8.50;;;3.47;;
82871;SDS011;72646;43.596;1.428;2023-11-19T10:26:17;7.15;;;3.38;;
82871;SDS011;72646;43.596;1.428;2023-11-19T10:28:43;8.23;;;3.55;;
82871;SDS011;72646;43.596;1.428;2023-11-19T10:31:14;8.05;;;3.33;;
82871;SDS011;72646;43.596;1.428;2023-11-19T10:33:40;7.82;;;3.50;;
82871;SDS011;72646;43.596;1.428;2023-11-19T10:36:06;8.32;;;3.90;;
82871;SDS011;72646;43.596;1.428;2023-11-19T10:38:32;8.20;;;3.45;;
82871;SDS011;72646;43.596;1.428;2023-11-19T10:40:58;7.93;;;3.20;;
82871;SDS011;72646;43.596;1.428;2023-11-19T10:43:24;10.85;;;3.80;;
82871;SDS011;72646;43.596;1.428;2023-11-19T10:45:50;7.68;;;3.58;;
82871;SDS011;72646;43.596;1.428;2023-11-19T10:48:15;8.18;;;3.33;;
82871;SDS011;72646;43.596;1.428;2023-11-19T10:50:41;6.97;;;3.10;;
82871;SDS011;72646;43.596;1.428;2023-11-19T10:53:09;7.25;;;3.10;;
82871;SDS011;72646;43.596;1.428;2023-11-19T10:55:38;7.10;;;3.08;;
82871;SDS011;72646;43.596;1.428;2023-11-19T10:58:04;7.40;;;3.40;;
82871;SDS011;72646;43.596;1.428;2023-11-19T11:05:48;8.30;;;3.55;;
82871;SDS011;72646;43.596;1.428;2023-11-19T11:08:15;8.20;;;3.35;;
82871;SDS011;72646;43.596;1.428;2023-11-19T11:10:54;7.93;;;3.30;;
82871;SDS011;72646;43.596;1.428;2023-11-19T11:13:22;7.80;;;3.85;;
82871;SDS011;72646;43.596;1.428;2023-11-19T11:15:55;7.10;;;2.97;;
82871;SDS011;72646;43.596;1.428;2023-11-19T11:18:22;7.30;;;3.38;;
82871;SDS011;72646;43.596;1.428;2023-11-19T11:20:49;7.68;;;3.35;;
82871;SDS011;72646;43.596;1.428;2023-11-19T11:37:36;7.95;;;3.00;;
82871;SDS011;72646;43.596;1.428;2023-11-19T11:40:08;8.07;;;3.20;;
82871;SDS011;72646;43.596;1.428;2023-11-19T11:42:40;7.72;;;3.58;;
82871;SDS011;72646;43.596;1.428;2023-11-19T11:50:08;7.20;;;3.47;;
82871;SDS011;72646;43.596;1.428;2023-11-19T11:55:33;7.40;;;3.33;;
82871;SDS011;72646;43.596;1.428;2023-11-19T11:58:19;7.43;;;3.22;;
82871;SDS011;72646;43.596;1.428;2023-11-19T12:00:46;7.57;;;3.50;;
82871;SDS011;72646;43.596;1.428;2023-11-19T12:03:13;8.63;;;3.08;;
82871;SDS011;72646;43.596;1.428;2023-11-19T12:05:45;7.72;;;3.20;;
82871;SDS011;72646;43.596;1.428;2023-11-19T12:08:11;9.95;;;3.95;;
82871;SDS011;72646;43.596;1.428;2023-11-19T12:10:49;7.70;;;3.22;;
82871;SDS011;72646;43.596;1.428;2023-11-19T12:13:16;8.02;;;3.10;;
82871;SDS011;72646;43.596;1.428;2023-11-19T12:18:30;7.97;;;3.65;;
82871;SDS011;72646;43.596;1.428;2023-11-19T12:20:57;7.60;;;3.20;;
82871;SDS011;72646;43.596;1.428;2023-11-19T12:23:30;7.72;;;3.25;;
82871;SDS011;72646;43.596;1.428;2023-11-19T12:25:59;7.35;;;3.20;;
82871;SDS011;72646;43.596;1.428;2023-11-19T12:28:25;7.38;;;3.05;;
82871;SDS011;72646;43.596;1.428;2023-11-19T12:30:52;7.57;;;3.67;;
82871;SDS011;72646;43.596;1.428;2023-11-19T12:33:21;6.80;;;2.85;;
82871;SDS011;72646;43.596;1.428;2023-11-19T12:35:47;7.53;;;3.40;;
82871;SDS011;72646;43.596;1.428;2023-11-19T12:38:22;7.65;;;3.28;;
82871;SDS011;72646;43.596;1.428;2023-11-19T12:41:04;6.82;;;3.00;;
82871;SDS011;72646;43.596;1.428;2023-11-19T12:43:30;6.53;;;2.85;;
82871;SDS011;72646;43.596;1.428;2023-11-19T12:45:56;7.15;;;3.30;;
82871;SDS011;72646;43.596;1.428;2023-11-19T12:48:22;7.88;;;3.13;;
82871;SDS011;72646;43.596;1.428;2023-11-19T12:50:54;6.93;;;3.03;;
82871;SDS011;72646;43.596;1.428;2023-11-19T12:53:24;7.95;;;3.13;;
82871;SDS011;72646;43.596;1.428;2023-11-19T12:55:51;7.95;;;3.28;;
82871;SDS011;72646;43.596;1.428;2023-11-19T13:01:04;7.20;;;3.40;;
82871;SDS011;72646;43.596;1.428;2023-11-19T13:03:31;6.82;;;2.88;;
82871;SDS011;72646;43.596;1.428;2023-11-19T13:06:04;7.47;;;3.55;;
82871;SDS011;72646;43.596;1.428;2023-11-19T13:08:36;7.97;;;3.35;;
82871;SDS011;72646;43.596;1.428;2023-11-19T13:11:03;7.38;;;3.22;;
82871;SDS011;72646;43.596;1.428;2023-11-19T13:13:29;7.45;;;3.72;;
82871;SDS011;72646;43.596;1.428;2023-11-19T13:16:01;7.13;;;3.33;;
82871;SDS011;72646;43.596;1.428;2023-11-19T13:18:28;7.45;;;3.58;;
82871;SDS011;72646;43.596;1.428;2023-11-19T13:20:54;7.20;;;3.25;;
82871;SDS011;72646;43.596;1.428;2023-11-19T13:23:22;7.20;;;3.60;;
82871;SDS011;72646;43.596;1.428;2023-11-19T13:25:47;7.05;;;3.20;;
82871;SDS011;72646;43.596;1.428;2023-11-19T13:28:13;7.15;;;3.13;;
82871;SDS011;72646;43.596;1.428;2023-11-19T13:30:39;7.22;;;3.40;;
82871;SDS011;72646;43.596;1.428;2023-11-19T13:33:04;7.75;;;3.40;;
82871;SDS011;72646;43.596;1.428;2023-11-19T13:35:30;7.82;;;3.35;;
82871;SDS011;72646;43.596;1.428;2023-11-19T13:37:55;7.88;;;3.35;;
82871;SDS011;72646;43.596;1.428;2023-11-19T13:40:21;7.25;;;3.10;;
82871;SDS011;72646;43.596;1.428;2023-11-19T13:42:47;7.97;;;3.35;;
82871;SDS011;72646;43.596;1.428;2023-11-19T13:45:13;7.18;;;3.10;;
82871;SDS011;72646;43.596;1.428;2023-11-19T13:47:41;7.97;;;3.95;;
82871;SDS011;72646;43.596;1.428;2023-11-19T13:50:11;7.10;;;3.08;;
82871;SDS011;72646;43.596;1.428;2023-11-19T13:52:39;7.55;;;3.00;;
82871;SDS011;72646;43.596;1.428;2023-11-19T13:55:05;7.28;;;3.10;;
82871;SDS011;72646;43.596;1.428;2023-11-19T13:57:32;7.28;;;3.00;;
82871;SDS011;72646;43.596;1.428;2023-11-19T13:59:59;7.28;;;2.95;;
82871;SDS011;72646;43.596;1.428;2023-11-19T14:02:24;7.88;;;3.40;;
82871;SDS011;72646;43.596;1.428;2023-11-19T14:04:50;7.70;;;3.17;;
82871;SDS011;72646;43.596;1.428;2023-11-19T14:07:15;7.25;;;3.30;;
82871;SDS011;72646;43.596;1.428;2023-11-19T14:09:44;8.35;;;3.50;;
82871;SDS011;72646;43.596;1.428;2023-11-19T14:12:10;7.25;;;2.95;;
82871;SDS011;72646;43.596;1.428;2023-11-19T14:14:37;7.10;;;3.35;;
82871;SDS011;72646;43.596;1.428;2023-11-19T14:17:04;7.20;;;3.22;;
82871;SDS011;72646;43.596;1.428;2023-11-19T14:19:33;7.63;;;3.22;;
82871;SDS011;72646;43.596;1.428;2023-11-19T14:21:58;7.07;;;2.92;;
82871;SDS011;72646;43.596;1.428;2023-11-19T14:24:24;7.30;;;3.33;;
82871;SDS011;72646;43.596;1.428;2023-11-19T14:26:50;6.90;;;3.00;;
82871;SDS011;72646;43.596;1.428;2023-11-19T14:29:16;7.07;;;3.08;;
82871;SDS011;72646;43.596;1.428;2023-11-19T14:31:42;7.15;;;2.97;;
82871;SDS011;72646;43.596;1.428;2023-11-19T14:34:07;9.18;;;3.95;;
82871;SDS011;72646;43.596;1.428;2023-11-19T14:36:33;7.72;;;3.10;;
82871;SDS011;72646;43.596;1.428;2023-11-19T14:38:59;7.40;;;2.95;;
82871;SDS011;72646;43.596;1.428;2023-11-19T14:41:24;7.18;;;3.13;;
82871;SDS011;72646;43.596;1.428;2023-11-19T14:43:49;7.20;;;3.20;;
82871;SDS011;72646;43.596;1.428;2023-11-19T14:46:15;7.70;;;3.17;;
82871;SDS011;72646;43.596;1.428;2023-11-19T14:48:40;7.57;;;3.25;;
82871;SDS011;72646;43.596;1.428;2023-11-19T14:51:06;8.50;;;3.50;;
82871;SDS011;72646;43.596;1.428;2023-11-19T14:53:32;7.10;;;3.22;;
82871;SDS011;72646;43.596;1.428;2023-11-19T14:55:58;6.78;;;3.13;;
82871;SDS011;72646;43.596;1.428;2023-11-19T14:58:23;6.90;;;3.05;;
82871;SDS011;72646;43.596;1.428;2023-11-19T15:00:51;6.50;;;2.90;;
82871;SDS011;72646;43.596;1.428;2023-11-19T15:03:16;7.55;;;3.30;;
82871;SDS011;72646;43.596;1.428;2023-11-19T15:05:44;6.80;;;2.80;;
82871;SDS011;72646;43.596;1.428;2023-11-19T15:08:13;7.35;;;3.03;;
82871;SDS011;72646;43.596;1.428;2023-11-19T15:10:43;6.90;;;3.10;;
82871;SDS011;72646;43.596;1.428;2023-11-19T15:13:10;7.22;;;3.10;;
82871;SDS011;72646;43.596;1.428;2023-11-19T15:15:35;7.40;;;3.40;;
82871;SDS011;72646;43.596;1.428;2023-11-19T15:18:00;8.35;;;3.40;;
82871;SDS011;72646;43.596;1.428;2023-11-19T15:20:26;7.55;;;3.10;;
82871;SDS011;72646;43.596;1.428;2023-11-19T15:22:55;7.53;;;3.20;;